IWY711 TBPB-TFFF
Flight info
| Callsign | IWY711 |
|---|---|
| Flight time | 0h 40m |
| Altitude | 12000 |
| Route | BGI A555 FOF |
| Aircraft | AT76/M-SDFGHIRWY/LB1 |
Departure
| Time | 2026-05-08 16:18 |
|---|---|
| Airport | Grantley Adams International Airport (TBPB) |
Arrival
| Time | 2026-05-08 16:58 |
|---|---|
| Airport | Martinique Aimé Césaire International Airport (TFFF) |
| Time | Latitude | Longitude | Altitude | Speed | Heading |
|---|---|---|---|---|---|
| 2026-05-08 16:03 | 13.07834 | -59.48901 | 174 ft | 0 kts | 347° |
| 2026-05-08 16:12 | 13.07839 | -59.48903 | 174 ft | 3 kts | 327° |
| 2026-05-08 16:12 | 13.07829 | -59.48912 | 174 ft | 4 kts | 162° |
| 2026-05-08 16:13 | 13.07768 | -59.48891 | 174 ft | 14 kts | 164° |
| 2026-05-08 16:13 | 13.07696 | -59.48925 | 174 ft | 13 kts | 256° |
| 2026-05-08 16:13 | 13.07673 | -59.49021 | 174 ft | 14 kts | 257° |
| 2026-05-08 16:13 | 13.07651 | -59.49121 | 174 ft | 14 kts | 256° |
| 2026-05-08 16:14 | 13.07626 | -59.49222 | 174 ft | 15 kts | 256° |
| 2026-05-08 16:14 | 13.07601 | -59.49324 | 174 ft | 15 kts | 256° |
| 2026-05-08 16:14 | 13.07576 | -59.49428 | 174 ft | 15 kts | 256° |
| 2026-05-08 16:14 | 13.07551 | -59.49533 | 174 ft | 15 kts | 256° |
| 2026-05-08 16:15 | 13.07526 | -59.49638 | 174 ft | 15 kts | 256° |
| 2026-05-08 16:15 | 13.07501 | -59.49742 | 174 ft | 15 kts | 256° |
| 2026-05-08 16:15 | 13.07475 | -59.49847 | 174 ft | 15 kts | 256° |
| 2026-05-08 16:15 | 13.07450 | -59.49951 | 174 ft | 15 kts | 256° |
| 2026-05-08 16:16 | 13.07425 | -59.50056 | 174 ft | 15 kts | 256° |
| 2026-05-08 16:16 | 13.07400 | -59.50160 | 174 ft | 15 kts | 255° |
| 2026-05-08 16:16 | 13.07323 | -59.50191 | 174 ft | 13 kts | 162° |
| 2026-05-08 16:16 | 13.07247 | -59.50164 | 175 ft | 10 kts | 148° |
| 2026-05-08 16:17 | 13.07240 | -59.50120 | 176 ft | 0 kts | 71° |
| 2026-05-08 16:17 | 13.07311 | -59.49829 | 174 ft | 73 kts | 76° |
| 2026-05-08 16:17 | 13.07479 | -59.49136 | 215 ft | 120 kts | 76° |
| 2026-05-08 16:18 | 13.07702 | -59.48310 | 696 ft | 123 kts | 75° |
| 2026-05-08 16:18 | 13.07943 | -59.47422 | 1193 ft | 132 kts | 78° |
| 2026-05-08 16:18 | 13.08165 | -59.46502 | 1789 ft | 135 kts | 78° |
| 2026-05-08 16:18 | 13.08483 | -59.45582 | 2267 ft | 146 kts | 58° |
| 2026-05-08 16:19 | 13.09435 | -59.45118 | 2595 ft | 169 kts | 2° |
| 2026-05-08 16:19 | 13.10592 | -59.45417 | 3052 ft | 176 kts | 340° |
| 2026-05-08 16:19 | 13.11449 | -59.46332 | 3500 ft | 185 kts | 299° |
| 2026-05-08 16:19 | 13.11997 | -59.47531 | 3988 ft | 186 kts | 296° |
| 2026-05-08 16:20 | 13.12511 | -59.48750 | 4471 ft | 187 kts | 295° |
| 2026-05-08 16:20 | 13.13027 | -59.50030 | 4794 ft | 196 kts | 294° |
| 2026-05-08 16:20 | 13.13540 | -59.51323 | 5306 ft | 196 kts | 294° |
| 2026-05-08 16:20 | 13.14051 | -59.52627 | 5780 ft | 197 kts | 294° |
| 2026-05-08 16:21 | 13.14562 | -59.53929 | 6192 ft | 197 kts | 294° |
| 2026-05-08 16:21 | 13.15081 | -59.55230 | 6504 ft | 197 kts | 297° |
| 2026-05-08 16:21 | 13.15784 | -59.56434 | 6816 ft | 197 kts | 307° |
| 2026-05-08 16:21 | 13.16623 | -59.57540 | 7111 ft | 197 kts | 313° |
| 2026-05-08 16:22 | 13.17552 | -59.58568 | 7426 ft | 196 kts | 317° |
| 2026-05-08 16:22 | 13.18528 | -59.59551 | 7721 ft | 197 kts | 319° |
| 2026-05-08 16:22 | 13.19523 | -59.60524 | 8013 ft | 198 kts | 319° |
| 2026-05-08 16:22 | 13.20519 | -59.61501 | 8291 ft | 199 kts | 319° |
| 2026-05-08 16:23 | 13.21522 | -59.62478 | 8563 ft | 199 kts | 319° |
| 2026-05-08 16:23 | 13.22520 | -59.63461 | 8847 ft | 200 kts | 318° |
| 2026-05-08 16:23 | 13.23505 | -59.64445 | 9121 ft | 200 kts | 318° |
| 2026-05-08 16:23 | 13.24504 | -59.65449 | 9392 ft | 201 kts | 317° |
| 2026-05-08 16:24 | 13.25500 | -59.66450 | 9652 ft | 201 kts | 317° |
| 2026-05-08 16:24 | 13.26497 | -59.67457 | 9909 ft | 201 kts | 317° |
| 2026-05-08 16:24 | 13.27494 | -59.68465 | 10164 ft | 201 kts | 317° |
| 2026-05-08 16:24 | 13.28495 | -59.69474 | 10415 ft | 201 kts | 317° |
| 2026-05-08 16:25 | 13.29496 | -59.70483 | 10679 ft | 202 kts | 317° |
| 2026-05-08 16:25 | 13.30498 | -59.71493 | 10924 ft | 202 kts | 316° |
| 2026-05-08 16:25 | 13.31502 | -59.72506 | 11177 ft | 203 kts | 316° |
| 2026-05-08 16:25 | 13.32508 | -59.73523 | 11431 ft | 203 kts | 316° |
| 2026-05-08 16:26 | 13.33513 | -59.74535 | 11674 ft | 203 kts | 316° |
| 2026-05-08 16:26 | 13.34522 | -59.75554 | 11860 ft | 206 kts | 316° |
| 2026-05-08 16:26 | 13.35564 | -59.76606 | 11933 ft | 213 kts | 316° |
| 2026-05-08 16:26 | 13.36641 | -59.77694 | 11964 ft | 221 kts | 316° |
| 2026-05-08 16:27 | 13.37755 | -59.78819 | 11979 ft | 228 kts | 316° |
| 2026-05-08 16:27 | 13.38898 | -59.79972 | 11996 ft | 233 kts | 316° |
| 2026-05-08 16:27 | 13.40065 | -59.81151 | 11997 ft | 238 kts | 316° |
| 2026-05-08 16:27 | 13.41253 | -59.82352 | 11998 ft | 241 kts | 316° |
| 2026-05-08 16:28 | 13.42456 | -59.83568 | 11998 ft | 244 kts | 316° |
| 2026-05-08 16:28 | 13.43670 | -59.84793 | 11997 ft | 246 kts | 316° |
| 2026-05-08 16:28 | 13.44892 | -59.86027 | 11997 ft | 247 kts | 316° |
| 2026-05-08 16:28 | 13.46123 | -59.87270 | 11997 ft | 249 kts | 316° |
| 2026-05-08 16:29 | 13.47359 | -59.88522 | 11998 ft | 249 kts | 316° |
| 2026-05-08 16:29 | 13.48179 | -59.89349 | 11998 ft | 250 kts | 316° |
| 2026-05-08 16:29 | 13.49840 | -59.91029 | 11997 ft | 251 kts | 316° |
| 2026-05-08 16:29 | 13.51085 | -59.92290 | 11997 ft | 251 kts | 316° |
| 2026-05-08 16:30 | 13.52329 | -59.93546 | 12000 ft | 250 kts | 316° |
| 2026-05-08 16:30 | 13.53150 | -59.94378 | 12003 ft | 250 kts | 316° |
| 2026-05-08 16:30 | 13.54392 | -59.95632 | 12006 ft | 251 kts | 316° |
| 2026-05-08 16:30 | 13.55635 | -59.96891 | 12007 ft | 251 kts | 316° |
| 2026-05-08 16:31 | 13.56880 | -59.98149 | 12008 ft | 251 kts | 316° |
| 2026-05-08 16:31 | 13.58127 | -59.99412 | 12007 ft | 251 kts | 316° |
| 2026-05-08 16:31 | 13.59374 | -60.00674 | 12008 ft | 252 kts | 316° |
| 2026-05-08 16:31 | 13.60626 | -60.01940 | 12010 ft | 253 kts | 316° |
| 2026-05-08 16:32 | 13.61879 | -60.03209 | 12010 ft | 253 kts | 316° |
| 2026-05-08 16:32 | 13.63131 | -60.04478 | 12008 ft | 253 kts | 316° |
| 2026-05-08 16:32 | 13.64386 | -60.05749 | 12007 ft | 253 kts | 316° |
| 2026-05-08 16:32 | 13.65641 | -60.07020 | 12008 ft | 253 kts | 316° |
| 2026-05-08 16:33 | 13.66894 | -60.08290 | 12008 ft | 253 kts | 316° |
| 2026-05-08 16:33 | 13.68150 | -60.09562 | 12006 ft | 253 kts | 316° |
| 2026-05-08 16:33 | 13.69403 | -60.10833 | 12006 ft | 253 kts | 316° |
| 2026-05-08 16:33 | 13.70654 | -60.12100 | 12007 ft | 253 kts | 316° |
| 2026-05-08 16:34 | 13.71905 | -60.13367 | 12008 ft | 252 kts | 316° |
| 2026-05-08 16:34 | 13.73153 | -60.14632 | 12008 ft | 252 kts | 316° |
| 2026-05-08 16:34 | 13.74400 | -60.15896 | 12008 ft | 252 kts | 316° |
| 2026-05-08 16:34 | 13.75648 | -60.17164 | 12009 ft | 252 kts | 316° |
| 2026-05-08 16:35 | 13.76896 | -60.18427 | 12012 ft | 252 kts | 316° |
| 2026-05-08 16:35 | 13.78139 | -60.19692 | 12014 ft | 251 kts | 316° |
| 2026-05-08 16:35 | 13.79386 | -60.20956 | 12015 ft | 252 kts | 316° |
| 2026-05-08 16:35 | 13.80632 | -60.22222 | 12018 ft | 252 kts | 316° |
| 2026-05-08 16:36 | 13.81878 | -60.23486 | 12016 ft | 252 kts | 316° |
| 2026-05-08 16:36 | 13.83126 | -60.24750 | 12015 ft | 252 kts | 316° |
| 2026-05-08 16:36 | 13.84371 | -60.26018 | 12016 ft | 252 kts | 316° |
| 2026-05-08 16:36 | 13.85602 | -60.27267 | 12018 ft | 252 kts | 316° |
| 2026-05-08 16:37 | 13.86851 | -60.28537 | 12018 ft | 252 kts | 316° |
| 2026-05-08 16:37 | 13.88097 | -60.29803 | 12015 ft | 252 kts | 316° |
| 2026-05-08 16:37 | 13.89345 | -60.31068 | 12018 ft | 252 kts | 316° |
| 2026-05-08 16:37 | 13.90592 | -60.32336 | 12018 ft | 252 kts | 316° |
| 2026-05-08 16:38 | 13.91840 | -60.33603 | 12018 ft | 252 kts | 316° |
| 2026-05-08 16:38 | 13.93086 | -60.34872 | 12016 ft | 252 kts | 316° |
| 2026-05-08 16:38 | 13.94335 | -60.36142 | 12015 ft | 252 kts | 316° |
| 2026-05-08 16:38 | 13.95585 | -60.37410 | 12019 ft | 252 kts | 316° |
| 2026-05-08 16:39 | 13.96831 | -60.38679 | 12018 ft | 252 kts | 316° |
| 2026-05-08 16:39 | 13.98076 | -60.39945 | 12017 ft | 252 kts | 316° |
| 2026-05-08 16:39 | 13.99323 | -60.41215 | 12017 ft | 252 kts | 316° |
| 2026-05-08 16:39 | 14.00571 | -60.42485 | 12019 ft | 252 kts | 316° |
| 2026-05-08 16:40 | 14.01820 | -60.43756 | 12018 ft | 252 kts | 316° |
| 2026-05-08 16:40 | 14.03073 | -60.45031 | 12014 ft | 253 kts | 316° |
| 2026-05-08 16:40 | 14.04325 | -60.46301 | 12011 ft | 253 kts | 316° |
| 2026-05-08 16:40 | 14.05578 | -60.47570 | 12009 ft | 253 kts | 315° |
| 2026-05-08 16:41 | 14.06823 | -60.48849 | 12009 ft | 253 kts | 316° |
| 2026-05-08 16:41 | 14.08073 | -60.50122 | 12008 ft | 253 kts | 316° |
| 2026-05-08 16:41 | 14.09322 | -60.51392 | 12009 ft | 252 kts | 316° |
| 2026-05-08 16:42 | 14.11820 | -60.53936 | 12009 ft | 252 kts | 316° |
| 2026-05-08 16:42 | 14.13068 | -60.55209 | 12008 ft | 252 kts | 316° |
| 2026-05-08 16:42 | 14.14314 | -60.56479 | 12007 ft | 252 kts | 316° |
| 2026-05-08 16:42 | 14.15558 | -60.57749 | 12009 ft | 252 kts | 316° |
| 2026-05-08 16:43 | 14.16674 | -60.59123 | 12006 ft | 250 kts | 297° |
| 2026-05-08 16:43 | 14.17222 | -60.60814 | 12007 ft | 249 kts | 287° |
| 2026-05-08 16:43 | 14.17668 | -60.62543 | 12007 ft | 250 kts | 285° |
| 2026-05-08 16:43 | 14.18089 | -60.64286 | 12010 ft | 252 kts | 285° |
| 2026-05-08 16:44 | 14.18499 | -60.66041 | 12009 ft | 252 kts | 284° |
| 2026-05-08 16:44 | 14.18902 | -60.67804 | 12007 ft | 253 kts | 284° |
| 2026-05-08 16:44 | 14.19302 | -60.69568 | 12007 ft | 253 kts | 284° |
| 2026-05-08 16:44 | 14.19653 | -60.71340 | 12009 ft | 252 kts | 283° |
| 2026-05-08 16:45 | 14.20020 | -60.73088 | 12009 ft | 253 kts | 284° |
| 2026-05-08 16:45 | 14.20412 | -60.74856 | 12008 ft | 253 kts | 285° |
| 2026-05-08 16:45 | 14.20853 | -60.76614 | 11984 ft | 254 kts | 287° |
| 2026-05-08 16:45 | 14.21423 | -60.78367 | 11732 ft | 263 kts | 292° |
| 2026-05-08 16:46 | 14.22186 | -60.80109 | 11433 ft | 271 kts | 298° |
| 2026-05-08 16:46 | 14.23103 | -60.81832 | 11135 ft | 277 kts | 301° |
| 2026-05-08 16:46 | 14.24074 | -60.83572 | 10832 ft | 282 kts | 301° |
| 2026-05-08 16:46 | 14.25055 | -60.85341 | 10536 ft | 286 kts | 301° |
| 2026-05-08 16:47 | 14.26015 | -60.87144 | 10263 ft | 287 kts | 300° |
| 2026-05-08 16:47 | 14.26963 | -60.88944 | 10126 ft | 284 kts | 300° |
| 2026-05-08 16:47 | 14.27898 | -60.90717 | 10067 ft | 279 kts | 300° |
| 2026-05-08 16:47 | 14.28814 | -60.92462 | 10035 ft | 275 kts | 300° |
| 2026-05-08 16:48 | 14.29719 | -60.94183 | 10021 ft | 271 kts | 300° |
| 2026-05-08 16:48 | 14.30612 | -60.95884 | 10017 ft | 269 kts | 300° |
| 2026-05-08 16:48 | 14.31501 | -60.97572 | 10010 ft | 266 kts | 300° |
| 2026-05-08 16:48 | 14.32385 | -60.99251 | 9937 ft | 267 kts | 300° |
| 2026-05-08 16:49 | 14.33280 | -61.00950 | 9694 ft | 274 kts | 300° |
| 2026-05-08 16:49 | 14.34186 | -61.02675 | 9316 ft | 273 kts | 300° |
| 2026-05-08 16:49 | 14.35090 | -61.04398 | 8936 ft | 273 kts | 301° |
| 2026-05-08 16:49 | 14.35994 | -61.06118 | 8553 ft | 272 kts | 301° |
| 2026-05-08 16:50 | 14.36893 | -61.07833 | 8185 ft | 271 kts | 300° |
| 2026-05-08 16:50 | 14.37792 | -61.09545 | 7807 ft | 271 kts | 300° |
| 2026-05-08 16:50 | 14.38689 | -61.11252 | 7433 ft | 270 kts | 300° |
| 2026-05-08 16:50 | 14.39579 | -61.12953 | 7056 ft | 267 kts | 300° |
| 2026-05-08 16:51 | 14.40453 | -61.14616 | 6681 ft | 261 kts | 300° |
| 2026-05-08 16:51 | 14.41308 | -61.16244 | 6302 ft | 255 kts | 300° |
| 2026-05-08 16:51 | 14.42132 | -61.17824 | 5909 ft | 252 kts | 301° |
| 2026-05-08 16:51 | 14.42973 | -61.19420 | 5393 ft | 254 kts | 301° |
| 2026-05-08 16:52 | 14.43814 | -61.21027 | 4894 ft | 255 kts | 301° |
| 2026-05-08 16:52 | 14.44874 | -61.22433 | 4394 ft | 247 kts | 326° |
| 2026-05-08 16:52 | 14.46442 | -61.23016 | 3896 ft | 239 kts | 359° |
| 2026-05-08 16:52 | 14.48074 | -61.22918 | 3473 ft | 233 kts | 12° |
| 2026-05-08 16:53 | 14.51143 | -61.22065 | 2734 ft | 225 kts | 20° |
| 2026-05-08 16:53 | 14.52636 | -61.21572 | 2485 ft | 231 kts | 20° |
| 2026-05-08 16:53 | 14.54197 | -61.21027 | 2246 ft | 240 kts | 27° |
| 2026-05-08 16:54 | 14.55358 | -61.19897 | 2115 ft | 221 kts | 62° |
| 2026-05-08 16:54 | 14.55941 | -61.18502 | 2054 ft | 204 kts | 71° |
| 2026-05-08 16:54 | 14.56298 | -61.17131 | 2017 ft | 192 kts | 78° |
| 2026-05-08 16:54 | 14.56528 | -61.15815 | 2011 ft | 181 kts | 80° |
| 2026-05-08 16:55 | 14.56719 | -61.14564 | 2003 ft | 173 kts | 80° |
| 2026-05-08 16:55 | 14.56910 | -61.13372 | 1996 ft | 164 kts | 80° |
| 2026-05-08 16:55 | 14.57087 | -61.12234 | 1994 ft | 157 kts | 81° |
| 2026-05-08 16:55 | 14.57254 | -61.11121 | 1818 ft | 157 kts | 81° |
| 2026-05-08 16:56 | 14.57436 | -61.10019 | 1619 ft | 150 kts | 80° |
| 2026-05-08 16:56 | 14.57610 | -61.09040 | 1426 ft | 127 kts | 79° |
| 2026-05-08 16:56 | 14.57767 | -61.08194 | 1268 ft | 114 kts | 79° |
| 2026-05-08 16:56 | 14.57895 | -61.07407 | 1111 ft | 111 kts | 82° |
| 2026-05-08 16:57 | 14.58013 | -61.06603 | 1047 ft | 113 kts | 81° |
| 2026-05-08 16:57 | 14.58141 | -61.05820 | 926 ft | 110 kts | 79° |
| 2026-05-08 16:57 | 14.58292 | -61.05022 | 692 ft | 117 kts | 79° |
| 2026-05-08 16:57 | 14.58431 | -61.04182 | 530 ft | 119 kts | 79° |
| 2026-05-08 16:58 | 14.58581 | -61.03330 | 342 ft | 122 kts | 80° |
| 2026-05-08 16:58 | 14.58725 | -61.02492 | 160 ft | 120 kts | 77° |
| 2026-05-08 16:58 | 14.58877 | -61.01674 | 24 ft | 111 kts | 79° |
| 2026-05-08 16:58 | 14.58968 | -61.01120 | 6 ft | 32 kts | 81° |
| 2026-05-08 16:59 | 14.58994 | -61.00962 | 5 ft | 19 kts | 79° |
| 2026-05-08 16:59 | 14.59019 | -61.00819 | 5 ft | 21 kts | 80° |
| 2026-05-08 16:59 | 14.59051 | -61.00682 | 3 ft | 15 kts | 47° |
| 2026-05-08 16:59 | 14.59137 | -61.00685 | 3 ft | 15 kts | 349° |
| 2026-05-08 17:00 | 14.59207 | -61.00680 | 3 ft | 8 kts | 51° |
| 2026-05-08 17:00 | 14.59219 | -61.00629 | 3 ft | 7 kts | 81° |
| 2026-05-08 17:00 | 14.59227 | -61.00582 | 3 ft | 10 kts | 80° |
| 2026-05-08 17:00 | 14.59244 | -61.00486 | 3 ft | 12 kts | 79° |
| 2026-05-08 17:01 | 14.59257 | -61.00408 | 3 ft | 10 kts | 80° |
| 2026-05-08 17:01 | 14.59268 | -61.00344 | 3 ft | 8 kts | 80° |
| 2026-05-08 17:01 | 14.59278 | -61.00288 | 3 ft | 8 kts | 80° |
| 2026-05-08 17:01 | 14.59290 | -61.00218 | 3 ft | 9 kts | 80° |
| 2026-05-08 17:02 | 14.59300 | -61.00158 | 3 ft | 8 kts | 80° |
| 2026-05-08 17:02 | 14.59310 | -61.00099 | 3 ft | 11 kts | 79° |
| 2026-05-08 17:02 | 14.59332 | -61.00063 | 3 ft | 6 kts | 346° |
| 2026-05-08 17:02 | 14.59389 | -61.00114 | 3 ft | 13 kts | 300° |
| 2026-05-08 17:03 | 14.59412 | -61.00141 | 3 ft | 2 kts | 6° |
| 2026-05-08 17:03 | 14.59445 | -61.00122 | 3 ft | 7 kts | 35° |
| 2026-05-08 17:03 | 14.59461 | -61.00111 | 3 ft | 0 kts | 33° |